Time;durP1;ratioP1;P1;durP2;ratioP2;P2;SDS_P1;SDS_P2;PMS_P1;PMS_P2;Temp;Humidity;BMP_temperature;BMP_pressure;BME280_temperature;BME280_humidity;BME280_pressure;Samples;Min_cycle;Max_cycle;Signal;HPM_P1;HPM_P2
2021/09/07 00:02:05;;;;;;;15.25;8.98;;;16.30;83.40;;;;;;5074965;28;20392;-81
2021/09/07 00:04:31;;;;;;;13.27;8.47;;;16.30;83.10;;;;;;5074739;28;20386;-80
2021/09/07 00:06:59;;;;;;;16.30;9.03;;;16.30;83.00;;;;;;5056739;28;20477;-81
2021/09/07 00:09:25;;;;;;;16.80;9.10;;;16.20;83.40;;;;;;5056604;28;20392;-80
2021/09/07 00:11:51;;;;;;;15.40;8.60;;;16.10;83.60;;;;;;5056569;28;20868;-80
2021/09/07 00:14:17;;;;;;;16.55;9.48;;;16.10;83.70;;;;;;5056511;28;20756;-81
2021/09/07 00:16:42;;;;;;;15.38;8.70;;;16.00;83.80;;;;;;5074696;28;20732;-81
2021/09/07 00:19:08;;;;;;;15.45;9.10;;;16.00;83.70;;;;;;5074662;28;20800;-80
2021/09/07 00:21:34;;;;;;;16.80;8.40;;;16.10;83.60;;;;;;5056413;28;20478;-81
2021/09/07 00:23:59;;;;;;;13.40;8.55;;;16.00;83.90;;;;;;5056365;28;20472;-80
2021/09/07 00:26:25;;;;;;;21.73;8.63;;;16.00;84.00;;;;;;5074283;28;20437;-81
2021/09/07 00:28:50;;;;;;;19.30;9.65;;;16.00;83.80;;;;;;5074123;28;20399;-81
2021/09/07 00:31:16;;;;;;;14.93;7.83;;;15.90;84.10;;;;;;5074190;28;20388;-81
2021/09/07 00:33:41;;;;;;;18.73;8.77;;;16.00;83.70;;;;;;5074210;28;20415;-81
2021/09/07 00:36:07;;;;;;;16.70;8.70;;;15.90;84.20;;;;;;5074015;28;20467;-81
2021/09/07 00:38:33;;;;;;;15.77;8.70;;;15.80;84.30;;;;;;5054954;28;20856;-81
2021/09/07 00:40:58;;;;;;;14.47;8.67;;;15.80;84.20;;;;;;5056179;28;20406;-81
2021/09/07 00:43:24;;;;;;;17.45;8.93;;;15.80;84.20;;;;;;5073891;28;20398;-81
2021/09/07 00:45:49;;;;;;;17.77;9.17;;;15.80;84.20;;;;;;5055971;28;20441;-81
2021/09/07 00:48:15;;;;;;;15.63;9.13;;;15.80;84.20;;;;;;5056046;28;20404;-81
2021/09/07 00:50:40;;;;;;;20.50;9.47;;;15.80;84.20;;;;;;5073815;28;20858;-81
2021/09/07 00:53:06;;;;;;;19.17;9.33;;;15.80;84.40;;;;;;5073791;28;20382;-81
2021/09/07 00:55:33;;;;;;;15.75;8.93;;;15.70;84.50;;;;;;5055613;28;20404;-81
2021/09/07 00:58:01;;;;;;;19.63;9.63;;;15.70;84.50;;;;;;5073359;28;20487;-81
2021/09/07 01:00:27;;;;;;;18.40;9.15;;;15.70;84.30;;;;;;5055726;28;20379;-81
2021/09/07 01:02:52;;;;;;;18.67;9.55;;;15.70;84.60;;;;;;5055596;28;20391;-83
2021/09/07 01:05:18;;;;;;;17.50;9.73;;;15.70;84.30;;;;;;5055510;28;20534;-84
2021/09/07 01:07:43;;;;;;;16.85;9.60;;;15.70;84.40;;;;;;5073440;28;20741;-83
2021/09/07 01:10:09;;;;;;;19.38;10.05;;;15.60;84.20;;;;;;5073597;28;20423;-83
2021/09/07 01:12:35;;;;;;;21.25;10.25;;;15.60;84.30;;;;;;5073241;28;20380;-84
2021/09/07 01:15:02;;;;;;;19.70;10.18;;;15.60;84.20;;;;;;5055346;28;20453;-84
2021/09/07 01:17:27;;;;;;;20.20;10.03;;;15.60;84.40;;;;;;5073425;28;20948;-84
2021/09/07 01:19:53;;;;;;;18.37;9.97;;;15.50;84.80;;;;;;5055327;28;20380;-84
2021/09/07 01:22:21;;;;;;;21.30;10.32;;;15.50;85.00;;;;;;5072944;28;20387;-84
2021/09/07 01:24:47;;;;;;;19.15;10.25;;;15.50;85.00;;;;;;5073206;28;20387;-83
2021/09/07 01:27:14;;;;;;;19.83;10.45;;;15.50;85.20;;;;;;5073280;28;20392;-84
2021/09/07 01:29:41;;;;;;;21.30;10.52;;;15.40;84.80;;;;;;5055071;28;20398;-84
2021/09/07 01:32:10;;;;;;;22.85;11.10;;;15.40;85.00;;;;;;5073098;28;20376;-84
2021/09/07 01:34:36;;;;;;;19.42;10.88;;;15.40;84.90;;;;;;5073029;28;20475;-84
2021/09/07 01:37:02;;;;;;;20.17;10.43;;;15.40;84.80;;;;;;5072949;28;20829;-84
2021/09/07 01:39:28;;;;;;;21.13;11.52;;;15.40;84.90;;;;;;5054812;28;20771;-84
2021/09/07 01:41:54;;;;;;;25.40;11.20;;;15.40;85.10;;;;;;5072849;28;20388;-84
2021/09/07 01:44:20;;;;;;;25.27;12.00;;;15.40;85.00;;;;;;5054805;28;20406;-84
2021/09/07 01:46:46;;;;;;;22.92;11.68;;;15.40;85.20;;;;;;5055132;28;20391;-84
2021/09/07 01:49:13;;;;;;;24.90;11.55;;;15.40;85.00;;;;;;5072364;28;20404;-84
2021/09/07 01:51:41;;;;;;;21.73;11.65;;;15.30;85.10;;;;;;5054811;28;20477;-84
2021/09/07 01:54:07;;;;;;;26.42;12.25;;;15.30;84.90;;;;;;5072626;28;20388;-84
2021/09/07 01:56:33;;;;;;;21.88;11.40;;;15.30;85.00;;;;;;5072676;28;20744;-84
2021/09/07 01:58:59;;;;;;;25.42;12.02;;;15.30;85.10;;;;;;5072505;28;20470;-85
2021/09/07 02:01:25;;;;;;;20.95;11.52;;;15.30;85.10;;;;;;5072172;28;20864;-84
2021/09/07 02:03:50;;;;;;;25.47;12.77;;;15.20;85.10;;;;;;5072378;28;20463;-84
2021/09/07 02:06:16;;;;;;;24.00;11.70;;;15.20;85.30;;;;;;5072164;28;20380;-84
2021/09/07 02:08:42;;;;;;;21.48;12.38;;;15.20;85.30;;;;;;5072363;28;20406;-84
2021/09/07 02:11:08;;;;;;;25.10;12.52;;;15.20;85.40;;;;;;5072047;28;20904;-84
2021/09/07 02:13:33;;;;;;;22.50;12.07;;;15.20;85.50;;;;;;5072247;28;20478;-84
2021/09/07 02:15:59;;;;;;;24.23;12.20;;;15.20;85.40;;;;;;5054234;28;20399;-85
2021/09/07 02:18:24;;;;;;;22.77;12.38;;;15.10;85.40;;;;;;5072130;28;20441;-85
2021/09/07 02:20:50;;;;;;;25.13;12.07;;;15.10;85.90;;;;;;5054122;28;20384;-84
2021/09/07 02:23:15;;;;;;;25.42;12.57;;;15.10;86.10;;;;;;5054192;28;20384;-85
2021/09/07 02:25:41;;;;;;;22.50;12.18;;;15.10;86.10;;;;;;5054113;28;20418;-84
2021/09/07 02:28:06;;;;;;;21.73;12.37;;;15.10;86.40;;;;;;5071873;28;20418;-85
2021/09/07 02:30:32;;;;;;;28.93;12.87;;;15.10;86.40;;;;;;5054033;28;20753;-85
2021/09/07 02:32:59;;;;;;;21.15;11.77;;;15.10;85.80;;;;;;5071847;28;20375;-85
2021/09/07 02:35:27;;;;;;;28.70;12.25;;;15.10;86.00;;;;;;5071861;28;20380;-84
2021/09/07 02:37:53;;;;;;;21.92;11.57;;;15.20;85.90;;;;;;5054122;28;20398;-84
2021/09/07 02:40:19;;;;;;;25.05;12.45;;;15.10;86.00;;;;;;5071785;28;20939;-85
2021/09/07 02:42:45;;;;;;;21.50;13.13;;;15.20;85.90;;;;;;5071845;28;20737;-84
2021/09/07 02:45:10;;;;;;;24.58;13.05;;;15.10;85.90;;;;;;5071378;28;20412;-84
2021/09/07 02:47:40;;;;;;;25.83;13.60;;;15.20;85.80;;;;;;5053790;28;20937;-85
2021/09/07 02:50:10;;;;;;;23.55;12.48;;;15.20;86.00;;;;;;5071939;28;20807;-84
2021/09/07 02:52:35;;;;;;;30.65;12.70;;;15.20;86.00;;;;;;5071926;28;20380;-84
2021/09/07 02:55:01;;;;;;;23.30;12.00;;;15.10;86.00;;;;;;5071521;28;20376;-85
2021/09/07 02:57:26;;;;;;;21.40;11.98;;;15.20;86.10;;;;;;5053601;28;20441;-84
2021/09/07 02:59:53;;;;;;;22.70;12.03;;;15.20;86.00;;;;;;5053361;28;20388;-84
2021/09/07 03:02:19;;;;;;;21.88;12.35;;;15.30;85.90;;;;;;5053722;28;20926;-85
2021/09/07 03:04:45;;;;;;;20.77;12.20;;;15.30;86.10;;;;;;5071132;28;20380;-85
2021/09/07 03:07:10;;;;;;;22.87;12.63;;;15.20;86.30;;;;;;5071275;28;20394;-84
2021/09/07 03:09:36;;;;;;;24.88;12.50;;;15.20;86.40;;;;;;5053194;28;20404;-85
2021/09/07 03:12:01;;;;;;;24.57;13.17;;;15.20;86.40;;;;;;5053338;28;20459;-85
2021/09/07 03:14:27;;;;;;;23.93;12.67;;;15.20;86.60;;;;;;5071290;28;20380;-84
2021/09/07 03:16:52;;;;;;;22.25;11.90;;;15.20;86.50;;;;;;5053096;28;20897;-84
2021/09/07 03:19:18;;;;;;;20.03;11.63;;;15.20;85.90;;;;;;5071458;28;20391;-84
2021/09/07 03:21:43;;;;;;;24.10;12.33;;;15.20;85.90;;;;;;5053404;28;20380;-84
2021/09/07 03:24:09;;;;;;;22.63;11.23;;;15.30;86.10;;;;;;5071517;28;20430;-84
2021/09/07 03:26:35;;;;;;;21.77;11.73;;;15.30;86.40;;;;;;5071220;28;20372;-84
2021/09/07 03:29:00;;;;;;;25.27;13.03;;;15.20;86.60;;;;;;5071142;28;20415;-85
2021/09/07 03:31:26;;;;;;;24.90;12.23;;;15.20;86.30;;;;;;5053249;28;20895;-84
2021/09/07 03:33:53;;;;;;;23.20;12.10;;;15.20;86.10;;;;;;5071204;28;20404;-84
2021/09/07 03:36:19;;;;;;;22.77;11.52;;;15.20;86.70;;;;;;5053225;28;20403;-84
2021/09/07 03:38:44;;;;;;;20.27;11.25;;;15.20;86.70;;;;;;5071338;28;20395;-84
2021/09/07 03:41:11;;;;;;;22.67;11.90;;;15.30;86.60;;;;;;5053157;28;20392;-85
2021/09/07 03:43:37;;;;;;;21.35;11.57;;;15.30;86.90;;;;;;5071083;28;20379;-85
2021/09/07 03:46:03;;;;;;;20.13;11.52;;;15.30;86.80;;;;;;5052981;28;20872;-85
2021/09/07 03:48:28;;;;;;;22.27;11.57;;;15.20;86.80;;;;;;5071065;28;20415;-85
2021/09/07 03:50:54;;;;;;;22.65;10.80;;;15.30;87.00;;;;;;5071070;28;20376;-85
2021/09/07 03:53:19;;;;;;;22.63;12.13;;;15.20;86.90;;;;;;5053101;28;20943;-85
2021/09/07 03:55:45;;;;;;;20.47;11.73;;;15.30;87.00;;;;;;5052904;28;20424;-85
2021/09/07 03:58:10;;;;;;;26.17;11.57;;;15.20;87.30;;;;;;5071285;28;20783;-84
2021/09/07 04:00:36;;;;;;;19.40;10.90;;;15.30;87.30;;;;;;5053003;28;20402;-85
2021/09/07 04:03:01;;;;;;;22.70;12.30;;;15.30;87.10;;;;;;5070634;28;20384;-85
2021/09/07 04:05:27;;;;;;;23.83;11.88;;;15.30;86.50;;;;;;5052945;28;20380;-85
2021/09/07 04:07:53;;;;;;;20.42;12.30;;;15.30;86.40;;;;;;5052511;28;20408;-84
2021/09/07 04:10:18;;;;;;;21.83;12.00;;;15.30;86.70;;;;;;5070943;28;20472;-84
2021/09/07 04:12:44;;;;;;;21.87;11.53;;;15.30;87.00;;;;;;5073858;28;20570;-84
2021/09/07 04:15:10;;;;;;;20.48;11.55;;;15.30;87.20;;;;;;5056627;28;20846;-84
2021/09/07 04:17:35;;;;;;;26.42;11.35;;;15.40;87.10;;;;;;5056424;28;20915;-84
2021/09/07 04:20:00;;;;;;;20.67;10.83;;;15.40;86.80;;;;;;5074479;28;20395;-85
2021/09/07 04:22:26;;;;;;;22.20;11.97;;;15.30;87.20;;;;;;5074444;28;20860;-85
2021/09/07 04:24:52;;;;;;;25.75;12.43;;;15.30;86.90;;;;;;5056718;28;20394;-84
2021/09/07 04:27:17;;;;;;;20.77;11.30;;;15.30;86.70;;;;;;5056217;28;20380;-85
2021/09/07 04:29:42;;;;;;;26.43;12.33;;;15.30;87.00;;;;;;5056302;28;20387;-84
2021/09/07 04:32:08;;;;;;;20.83;11.35;;;15.40;87.40;;;;;;5056307;28;20379;-84
2021/09/07 04:34:33;;;;;;;24.10;11.40;;;15.30;87.60;;;;;;5074253;28;20395;-84
2021/09/07 04:36:59;;;;;;;18.80;10.60;;;15.30;87.30;;;;;;5055944;28;20391;-84
2021/09/07 04:39:24;;;;;;;18.37;10.20;;;15.40;87.20;;;;;;5074084;28;20856;-84
2021/09/07 04:41:50;;;;;;;24.47;11.90;;;15.40;87.10;;;;;;5073764;28;20386;-84
2021/09/07 04:44:19;;;;;;;22.27;11.95;;;15.40;86.60;;;;;;5056054;28;20379;-84
2021/09/07 04:46:45;;;;;;;20.55;10.55;;;15.30;87.50;;;;;;5073965;28;20848;-84
2021/09/07 04:49:10;;;;;;;19.70;11.07;;;15.40;87.10;;;;;;5055871;28;20404;-85
2021/09/07 04:51:36;;;;;;;25.00;13.07;;;15.40;86.90;;;;;;5073962;28;20388;-84
2021/09/07 04:54:02;;;;;;;25.07;12.07;;;15.30;87.30;;;;;;5073932;28;20372;-84
2021/09/07 04:56:27;;;;;;;18.52;10.80;;;15.30;87.50;;;;;;5074290;28;20391;-84
2021/09/07 04:58:53;;;;;;;23.67;12.37;;;15.30;87.40;;;;;;5074075;28;20388;-84
2021/09/07 05:01:19;;;;;;;27.47;12.50;;;15.40;87.20;;;;;;5073653;28;20390;-84
2021/09/07 05:03:44;;;;;;;23.15;11.90;;;15.30;87.40;;;;;;5073706;28;20806;-84
2021/09/07 05:06:10;;;;;;;17.53;10.80;;;15.30;87.70;;;;;;5055267;28;20422;-84
2021/09/07 05:08:35;;;;;;;19.90;11.00;;;15.40;87.20;;;;;;5055228;28;20408;-84
2021/09/07 05:11:01;;;;;;;19.20;10.37;;;15.40;87.20;;;;;;5073476;28;20380;-84
2021/09/07 05:13:26;;;;;;;22.67;11.63;;;15.40;87.20;;;;;;5073749;28;20391;-84
2021/09/07 05:15:52;;;;;;;22.63;11.43;;;15.40;87.40;;;;;;5073142;28;20388;-83
2021/09/07 05:18:17;;;;;;;20.03;10.97;;;15.40;87.70;;;;;;5055525;28;20753;-84
2021/09/07 05:20:43;;;;;;;20.17;12.57;;;15.40;87.40;;;;;;5073441;28;20380;-84
2021/09/07 05:23:08;;;;;;;21.77;10.73;;;15.40;87.20;;;;;;5054719;28;20392;-84
2021/09/07 05:25:34;;;;;;;24.10;11.13;;;15.40;87.50;;;;;;5055469;28;20388;-84
2021/09/07 05:27:59;;;;;;;20.23;10.88;;;15.40;87.50;;;;;;5073115;28;20399;-84
2021/09/07 05:30:25;;;;;;;21.40;12.30;;;15.40;87.20;;;;;;5073146;28;20380;-84
2021/09/07 05:32:50;;;;;;;19.60;11.30;;;15.50;87.30;;;;;;5073137;28;20372;-84
2021/09/07 05:35:16;;;;;;;21.48;11.32;;;15.40;87.50;;;;;;5055022;28;20400;-84
2021/09/07 05:37:42;;;;;;;23.47;10.97;;;15.50;87.80;;;;;;5055067;28;20387;-84
2021/09/07 05:40:10;;;;;;;20.08;11.15;;;15.40;87.10;;;;;;5072981;28;20467;-84
2021/09/07 05:42:38;;;;;;;20.88;10.65;;;15.50;87.20;;;;;;5054935;28;20442;-84
2021/09/07 05:45:04;;;;;;;22.58;11.18;;;15.60;87.20;;;;;;5072743;28;20844;-84
2021/09/07 05:47:29;;;;;;;25.35;11.52;;;15.50;86.90;;;;;;5054809;28;20391;-84
2021/09/07 05:49:55;;;;;;;24.87;11.97;;;15.60;86.90;;;;;;5054213;28;20392;-84
2021/09/07 05:52:21;;;;;;;27.35;11.63;;;15.60;87.40;;;;;;5069970;28;20383;-84
2021/09/07 05:54:46;;;;;;;25.50;11.67;;;15.60;87.20;;;;;;5070786;28;20384;-84
2021/09/07 05:57:12;;;;;;;22.80;12.23;;;15.60;87.30;;;;;;5070518;28;20864;-84
2021/09/07 05:59:37;;;;;;;22.42;11.60;;;15.70;87.00;;;;;;5053499;28;20609;-84
2021/09/07 06:02:03;;;;;;;23.60;11.83;;;15.70;87.10;;;;;;5071606;28;20372;-84
2021/09/07 06:04:29;;;;;;;29.52;11.15;;;15.70;87.20;;;;;;5071198;28;20819;-84
2021/09/07 06:06:54;;;;;;;24.55;11.32;;;15.80;87.40;;;;;;5071482;28;20474;-84
2021/09/07 06:09:20;;;;;;;20.70;10.87;;;15.80;87.20;;;;;;5070810;28;20760;-84
2021/09/07 06:11:45;;;;;;;21.10;11.73;;;15.80;87.20;;;;;;5071232;28;20421;-84
2021/09/07 06:14:11;;;;;;;27.65;12.15;;;15.80;87.40;;;;;;5052008;28;20384;-84
2021/09/07 06:16:36;;;;;;;27.93;12.47;;;15.70;87.00;;;;;;5070101;28;20387;-84
2021/09/07 06:19:02;;;;;;;21.27;12.17;;;15.80;87.20;;;;;;5071000;28;20483;-84
2021/09/07 06:21:28;;;;;;;27.00;11.68;;;15.90;87.30;;;;;;5070905;28;20383;-84
2021/09/07 06:23:54;;;;;;;25.30;12.43;;;15.90;87.60;;;;;;5071091;28;20395;-84
2021/09/07 06:26:19;;;;;;;26.83;13.50;;;15.90;87.20;;;;;;5071089;28;20429;-84
2021/09/07 06:28:45;;;;;;;25.10;12.88;;;15.90;87.60;;;;;;5053046;28;20757;-84
2021/09/07 06:31:11;;;;;;;24.93;12.80;;;16.00;87.60;;;;;;5053467;28;20415;-84
2021/09/07 06:33:36;;;;;;;23.57;11.77;;;15.90;87.60;;;;;;5071947;28;20379;-84
2021/09/07 06:36:02;;;;;;;22.02;11.85;;;16.00;87.20;;;;;;5070737;28;20379;-84
2021/09/07 06:38:27;;;;;;;25.63;12.25;;;16.00;87.20;;;;;;5070520;28;20697;-84
2021/09/07 06:40:53;;;;;;;28.40;13.03;;;16.00;87.30;;;;;;5071858;28;20383;-84
2021/09/07 06:43:19;;;;;;;23.03;12.27;;;16.10;87.60;;;;;;5053808;28;20786;-84
2021/09/07 06:45:45;;;;;;;24.10;12.65;;;16.20;87.60;;;;;;5071728;28;20387;-84
2021/09/07 06:48:10;;;;;;;22.60;12.85;;;16.20;87.20;;;;;;5071468;28;20554;-84
2021/09/07 06:50:36;;;;;;;25.67;13.60;;;16.30;87.60;;;;;;5071646;28;20462;-84
2021/09/07 06:53:01;;;;;;;26.30;13.40;;;16.30;87.50;;;;;;5071499;28;20379;-84
2021/09/07 06:55:27;;;;;;;29.90;13.13;;;16.30;87.50;;;;;;5053591;28;20404;-84
2021/09/07 06:57:53;;;;;;;23.27;12.88;;;16.30;87.80;;;;;;5070547;28;20422;-83
2021/09/07 07:00:19;;;;;;;25.05;13.48;;;16.40;87.50;;;;;;5052393;28;20387;-83
2021/09/07 07:02:45;;;;;;;24.45;13.15;;;16.30;87.70;;;;;;5071241;28;20799;-84
2021/09/07 07:05:11;;;;;;;24.63;12.85;;;16.40;87.40;;;;;;5071790;28;20554;-84
2021/09/07 07:07:36;;;;;;;23.95;12.88;;;16.40;87.20;;;;;;5071354;28;20407;-84
2021/09/07 07:10:03;;;;;;;27.50;13.90;;;16.50;88.40;;;;;;5071200;28;20380;-84
2021/09/07 07:12:28;;;;;;;26.48;13.32;;;16.60;87.60;;;;;;5071148;28;20740;-83
2021/09/07 07:14:54;;;;;;;25.52;13.27;;;16.60;87.60;;;;;;5071102;28;20371;-84
2021/09/07 07:17:19;;;;;;;27.90;13.53;;;16.60;87.50;;;;;;5071361;28;20388;-84
2021/09/07 07:19:46;;;;;;;26.17;13.47;;;16.70;88.20;;;;;;5071436;28;20433;-83
2021/09/07 07:22:12;;;;;;;31.25;13.73;;;16.80;87.50;;;;;;5071036;28;20430;-84
2021/09/07 07:24:37;;;;;;;26.48;13.50;;;16.80;87.20;;;;;;5071042;28;20864;-84
2021/09/07 07:27:03;;;;;;;23.13;12.73;;;16.90;86.70;;;;;;5071374;28;20383;-84
2021/09/07 07:29:29;;;;;;;25.17;12.60;;;16.80;86.80;;;;;;5071197;28;20442;-84
2021/09/07 07:31:55;;;;;;;29.70;12.60;;;16.90;86.60;;;;;;5053026;28;20387;-84
2021/09/07 07:34:20;;;;;;;24.17;13.30;;;17.00;86.40;;;;;;5070901;28;20384;-84
2021/09/07 07:36:46;;;;;;;29.80;14.18;;;17.00;86.50;;;;;;5071190;28;20426;-84
2021/09/07 07:39:11;;;;;;;28.27;13.73;;;17.10;86.30;;;;;;5071139;28;20398;-84
2021/09/07 07:41:37;;;;;;;24.90;13.40;;;17.20;86.00;;;;;;5071057;28;20380;-84
2021/09/07 07:44:03;;;;;;;24.50;13.35;;;17.20;85.80;;;;;;5053076;28;20474;-85
2021/09/07 07:46:28;;;;;;;29.67;14.47;;;17.20;84.90;;;;;;5071832;28;20882;-84
2021/09/07 07:48:54;;;;;;;24.70;13.60;;;17.20;85.50;;;;;;5074930;28;20434;-84
2021/09/07 07:51:20;;;;;;;28.75;12.90;;;17.20;85.00;;;;;;5056981;28;20403;-84
2021/09/07 07:53:46;;;;;;;28.17;13.27;;;17.30;84.70;;;;;;5056959;28;20380;-84
2021/09/07 07:56:11;;;;;;;29.25;13.93;;;17.30;85.30;;;;;;5056830;28;20407;-84
2021/09/07 07:58:37;;;;;;;29.83;14.67;;;17.40;85.20;;;;;;5074810;28;20414;-84
2021/09/07 08:01:03;;;;;;;25.80;14.33;;;17.40;84.90;;;;;;5074691;28;20395;-84
2021/09/07 08:03:29;;;;;;;31.33;13.82;;;17.40;84.70;;;;;;5056404;28;20423;-84
2021/09/07 08:05:54;;;;;;;32.53;13.83;;;17.40;84.60;;;;;;5073898;28;20740;-84
2021/09/07 08:08:20;;;;;;;27.38;13.93;;;17.40;84.60;;;;;;5074286;28;20452;-84
2021/09/07 08:10:45;;;;;;;30.20;13.43;;;17.50;84.20;;;;;;5056615;28;20903;-84
2021/09/07 08:13:11;;;;;;;29.02;14.30;;;17.60;84.20;;;;;;5074621;28;20391;-84
2021/09/07 08:15:36;;;;;;;34.88;15.32;;;17.60;84.00;;;;;;5056505;28;20384;-84
2021/09/07 08:18:02;;;;;;;29.50;13.33;;;17.70;84.30;;;;;;5056201;28;20392;-84
2021/09/07 08:20:30;;;;;;;26.88;13.75;;;17.70;84.10;;;;;;5056544;28;20790;-84
2021/09/07 08:22:57;;;;;;;30.00;13.83;;;17.80;83.80;;;;;;5074457;28;20425;-84
2021/09/07 08:25:22;;;;;;;27.83;13.73;;;17.80;82.70;;;;;;5074415;28;20871;-83
2021/09/07 08:27:48;;;;;;;25.40;13.80;;;17.80;83.00;;;;;;5074237;28;20399;-84
2021/09/07 08:30:15;;;;;;;26.03;13.60;;;17.90;82.20;;;;;;5056436;28;20875;-84
2021/09/07 08:32:42;;;;;;;27.27;14.00;;;17.90;82.70;;;;;;5056364;28;20384;-84
2021/09/07 08:35:10;;;;;;;22.05;12.50;;;18.00;82.10;;;;;;5074227;28;20372;-84
2021/09/07 08:37:36;;;;;;;23.08;12.95;;;18.10;82.40;;;;;;5056191;28;20453;-84
2021/09/07 08:40:02;;;;;;;26.08;13.07;;;18.10;81.30;;;;;;5056148;28;20422;-84
2021/09/07 08:42:28;;;;;;;24.23;12.82;;;18.20;80.60;;;;;;5073973;28;20396;-84
2021/09/07 08:44:54;;;;;;;23.55;12.98;;;18.30;81.40;;;;;;5055890;28;20395;-84
2021/09/07 08:47:19;;;;;;;27.07;13.33;;;18.30;81.70;;;;;;5055888;28;20388;-84
2021/09/07 08:49:48;;;;;;;23.50;12.27;;;18.30;79.80;;;;;;5069503;28;20395;-84
2021/09/07 08:52:14;;;;;;;25.88;12.63;;;18.40;80.00;;;;;;5055806;28;20761;-84
2021/09/07 08:54:43;;;;;;;22.98;12.38;;;18.40;80.30;;;;;;5073835;28;20433;-84
2021/09/07 08:57:09;;;;;;;23.73;12.35;;;18.50;80.00;;;;;;5055782;28;20396;-84
2021/09/07 08:59:35;;;;;;;21.47;12.03;;;18.60;78.70;;;;;;5054617;28;20395;-83
2021/09/07 09:02:11;;;;;;;22.65;11.25;;;18.60;78.20;;;;;;5073734;28;20380;-83
2021/09/07 09:04:36;;;;;;;24.70;13.30;;;18.70;80.10;;;;;;5073570;28;20697;-83
2021/09/07 09:07:02;;;;;;;23.80;11.97;;;18.70;78.40;;;;;;5073414;28;20420;-83
2021/09/07 09:09:38;;;;;;;29.58;13.05;;;18.80;77.50;;;;;;5073258;28;20481;-82
2021/09/07 09:12:06;;;;;;;25.23;12.43;;;18.90;77.90;;;;;;5073552;28;20779;-84
2021/09/07 09:14:37;;;;;;;24.08;12.63;;;18.90;77.40;;;;;;5073372;28;20431;-83
2021/09/07 09:17:18;;;;;;;20.50;11.43;;;19.00;75.60;;;;;;5073508;28;20407;-83
2021/09/07 09:19:52;;;;;;;21.07;10.50;;;19.00;74.30;;;;;;5073347;28;20434;-82
2021/09/07 09:22:18;;;;;;;20.58;10.10;;;19.00;76.50;;;;;;5073633;28;20375;-82
2021/09/07 09:24:44;;;;;;;25.40;11.88;;;19.20;78.30;;;;;;5073266;28;20395;-82
2021/09/07 09:27:11;;;;;;;22.95;11.52;;;19.20;77.40;;;;;;5055260;28;20380;-82
2021/09/07 09:29:41;;;;;;;21.87;10.97;;;19.30;77.00;;;;;;5072881;28;20889;-83
2021/09/07 09:32:13;;;;;;;22.45;10.95;;;19.40;73.30;;;;;;5055171;28;20423;-83
2021/09/07 09:34:41;;;;;;;23.48;11.43;;;19.40;74.00;;;;;;5073066;28;20387;-82
2021/09/07 09:37:12;;;;;;;22.08;10.25;;;19.40;74.10;;;;;;5055069;28;20395;-82
2021/09/07 09:39:49;;;;;;;21.17;10.88;;;19.50;75.40;;;;;;5073124;28;20379;-82
2021/09/07 09:42:28;;;;;;;17.30;9.93;;;19.60;75.80;;;;;;5073046;28;20550;-82
2021/09/07 09:45:01;;;;;;;17.38;9.30;;;19.70;72.80;;;;;;5072829;28;20483;-83
2021/09/07 09:47:43;;;;;;;19.85;8.85;;;19.90;69.30;;;;;;5072424;28;20906;-83
2021/09/07 09:50:10;;;;;;;14.07;8.13;;;19.90;68.60;;;;;;5054716;28;20406;-81
2021/09/07 09:52:41;;;;;;;16.10;8.82;;;19.90;68.60;;;;;;5054762;28;20384;-82
2021/09/07 09:55:09;;;;;;;16.67;9.15;;;19.90;68.90;;;;;;5072744;28;20504;-82
2021/09/07 09:57:35;;;;;;;17.42;8.55;;;19.80;68.70;;;;;;5072716;28;20795;-84
2021/09/07 10:00:03;;;;;;;16.10;8.05;;;20.00;68.60;;;;;;5054684;28;20880;-83
2021/09/07 10:02:32;;;;;;;16.58;8.45;;;20.10;63.90;;;;;;5054551;28;20400;-82
2021/09/07 10:04:59;;;;;;;15.65;7.60;;;20.00;65.10;;;;;;5054471;28;20387;-83
2021/09/07 10:07:25;;;;;;;16.75;7.10;;;20.10;65.10;;;;;;5071902;28;20391;-84
2021/09/07 10:09:52;;;;;;;15.73;7.33;;;20.20;67.30;;;;;;5072264;28;20463;-84
2021/09/07 10:12:22;;;;;;;14.18;7.05;;;20.20;68.90;;;;;;5054335;28;20380;-84
2021/09/07 10:14:56;;;;;;;13.60;6.80;;;20.30;68.60;;;;;;5054357;28;20391;-83
2021/09/07 10:17:48;;;;;;;12.70;7.10;;;20.40;68.90;;;;;;5071980;28;20853;-83
2021/09/07 10:20:18;;;;;;;13.95;7.85;;;20.40;66.30;;;;;;5071297;28;20418;-83
2021/09/07 10:26:01;;;;;;;14.02;7.00;;;20.50;67.10;;;;;;5044124;28;20395;-82
2021/09/07 10:28:36;;;;;;;13.48;6.72;;;20.60;67.80;;;;;;5054036;28;20408;-83
2021/09/07 10:31:13;;;;;;;12.98;7.35;;;20.70;70.40;;;;;;5071866;28;20388;-83
2021/09/07 10:33:44;;;;;;;12.52;7.38;;;20.80;67.70;;;;;;5071910;28;20381;-83
2021/09/07 10:36:24;;;;;;;14.93;6.75;;;20.80;68.10;;;;;;5072021;28;20384;-83
2021/09/07 10:38:58;;;;;;;12.30;7.10;;;20.80;66.80;;;;;;5071829;28;20396;-84
2021/09/07 10:41:30;;;;;;;11.68;7.18;;;20.90;64.60;;;;;;5053563;28;20399;-83
2021/09/07 10:44:02;;;;;;;17.45;7.55;;;20.90;66.00;;;;;;5071080;28;20388;-83
2021/09/07 10:46:57;;;;;;;15.55;7.95;;;21.00;63.30;;;;;;5071421;28;20396;-84
2021/09/07 10:49:40;;;;;;;18.55;8.07;;;20.90;63.30;;;;;;4982912;28;20419;-82
2021/09/07 10:52:12;;;;;;;14.10;7.88;;;20.90;61.60;;;;;;5053688;28;20904;-81
2021/09/07 10:54:52;;;;;;;13.30;7.57;;;20.90;63.60;;;;;;5071704;28;20433;-82
2021/09/07 11:00:14;;;;;;;14.10;8.18;;;21.10;62.00;;;;;;5071399;28;20390;-84
2021/09/07 11:02:41;;;;;;;16.05;7.95;;;21.10;62.10;;;;;;5053460;28;20478;-81
2021/09/07 11:05:41;;;;;;;14.33;8.30;;;21.10;61.80;;;;;;5053519;28;20399;-81
2021/09/07 11:08:15;;;;;;;14.77;7.40;;;21.00;64.00;;;;;;5033444;28;20451;-80
2021/09/07 11:10:43;;;;;;;13.25;8.57;;;21.20;64.30;;;;;;5044513;28;20403;-80
2021/09/07 11:13:23;;;;;;;14.88;8.38;;;21.20;62.70;;;;;;5086980;28;20388;-80
2021/09/07 11:15:49;;;;;;;13.57;8.18;;;21.20;62.70;;;;;;5071383;28;20375;-80
2021/09/07 11:18:23;;;;;;;13.88;7.65;;;21.30;62.60;;;;;;5071735;28;20383;-80
2021/09/07 11:20:53;;;;;;;13.65;8.05;;;21.30;61.50;;;;;;5070566;28;20920;-81
2021/09/07 11:23:19;;;;;;;14.68;8.23;;;21.40;62.00;;;;;;5071269;28;20493;-81
2021/09/07 11:25:50;;;;;;;13.20;7.37;;;21.30;60.00;;;;;;5071522;28;20725;-80
2021/09/07 11:28:17;;;;;;;13.63;7.65;;;21.50;64.40;;;;;;5071342;28;20419;-82
2021/09/07 11:30:45;;;;;;;13.07;7.78;;;21.70;61.70;;;;;;5071254;28;20390;-81
2021/09/07 11:33:14;;;;;;;14.13;8.70;;;21.60;61.00;;;;;;5071167;28;20879;-80
2021/09/07 11:35:48;;;;;;;12.80;7.50;;;21.40;57.70;;;;;;5071240;28;20521;-80
2021/09/07 11:38:18;;;;;;;12.70;7.55;;;21.30;62.10;;;;;;5071279;28;20384;-80
2021/09/07 11:40:52;;;;;;;15.20;8.10;;;21.30;60.00;;;;;;5053128;28;20785;-80
2021/09/07 11:43:33;;;;;;;13.10;7.43;;;21.40;61.00;;;;;;5053133;28;20396;-80
2021/09/07 11:46:14;;;;;;;13.13;7.90;;;21.60;62.50;;;;;;5070993;28;20402;-80
2021/09/07 11:48:45;;;;;;;17.17;8.53;;;21.80;59.80;;;;;;5052944;28;20422;-79
2021/09/07 11:51:12;;;;;;;13.05;7.72;;;22.00;54.70;;;;;;5053089;28;20793;-80
2021/09/07 11:53:38;;;;;;;12.32;7.28;;;22.10;60.10;;;;;;5053064;28;20379;-79
2021/09/07 11:56:04;;;;;;;13.63;7.38;;;22.30;60.70;;;;;;5071114;28;20392;-79
2021/09/07 11:58:40;;;;;;;15.97;7.73;;;22.30;55.70;;;;;;5070992;28;20455;-79
2021/09/07 12:01:05;;;;;;;11.35;7.05;;;22.30;57.80;;;;;;5071087;28;20387;-80
2021/09/07 12:03:40;;;;;;;12.93;7.60;;;22.40;58.70;;;;;;5086517;28;20387;-79
2021/09/07 12:06:07;;;;;;;14.68;8.07;;;22.40;56.60;;;;;;5053020;28;20391;-80
2021/09/07 12:08:42;;;;;;;14.05;7.82;;;22.50;57.20;;;;;;5070867;28;20403;-80
2021/09/07 12:11:12;;;;;;;12.95;7.63;;;22.60;57.60;;;;;;5070807;28;20382;-79
2021/09/07 12:13:37;;;;;;;14.63;8.00;;;22.70;57.50;;;;;;5070817;28;20386;-79
2021/09/07 12:16:04;;;;;;;13.83;8.30;;;22.50;52.10;;;;;;5070531;28;20484;-79
2021/09/07 12:18:35;;;;;;;14.82;8.63;;;22.50;51.80;;;;;;5052720;28;20392;-80
2021/09/07 12:21:08;;;;;;;15.35;7.90;;;22.70;56.20;;;;;;5070717;28;20380;-80
2021/09/07 12:23:36;;;;;;;16.42;7.88;;;22.80;52.70;;;;;;5070833;28;20853;-79
2021/09/07 12:26:02;;;;;;;12.63;8.00;;;22.80;51.50;;;;;;5052764;28;20566;-79
2021/09/07 12:28:29;;;;;;;12.63;7.82;;;22.60;53.50;;;;;;5052532;28;20415;-80
2021/09/07 12:31:16;;;;;;;19.23;8.70;;;22.80;53.50;;;;;;5052693;28;20388;-79
2021/09/07 12:33:53;;;;;;;14.13;7.35;;;22.80;53.70;;;;;;5071919;28;20420;-80
2021/09/07 12:36:22;;;;;;;12.45;7.63;;;22.80;54.80;;;;;;5056322;28;20380;-79
2021/09/07 12:38:49;;;;;;;14.55;8.55;;;22.80;50.20;;;;;;5056275;28;20392;-79